Time;durP1;ratioP1;P1;durP2;ratioP2;P2;SDS_P1;SDS_P2;PMS_P1;PMS_P2;Temp;Humidity;BMP_temperature;BMP_pressure;BME280_temperature;BME280_humidity;BME280_pressure;Samples;Min_cycle;Max_cycle;Signal;HPM_P1;HPM_P2
2021/06/06 00:01:09;;;;;;;;;;;16.00;99.90;;;;;;5085347;28;20395;-54
2021/06/06 00:03:39;;;;;;;;;;;15.90;99.90;;;;;;5085476;28;19924;-56
2021/06/06 00:06:08;;;;;;;57.15;31.30;;;15.90;99.90;;;;;;5084327;28;20518;-55
2021/06/06 00:08:35;;;;;;;54.67;33.92;;;15.90;99.90;;;;;;5085640;28;20044;-50
2021/06/06 00:11:06;;;;;;;50.72;33.42;;;15.90;99.90;;;;;;5084566;28;20044;-50
2021/06/06 00:13:34;;;;;;;57.63;34.40;;;15.90;99.90;;;;;;5084616;28;20032;-58
2021/06/06 00:15:59;;;;;;;60.35;36.55;;;15.90;99.90;;;;;;5084250;28;20583;-56
2021/06/06 00:18:25;;;;;;;;;;;15.90;99.90;;;;;;5074803;28;20140;-51
2021/06/06 00:20:51;;;;;;;62.13;35.13;;;15.90;99.90;;;;;;5070862;28;20299;-54
2021/06/06 00:23:16;;;;;;;;;;;15.70;99.90;;;;;;5071381;28;20040;-54
2021/06/06 00:25:42;;;;;;;49.08;30.73;;;15.50;99.90;;;;;;5071334;28;19924;-58
2021/06/06 00:28:07;;;;;;;;;;;15.60;99.90;;;;;;5071005;28;20041;-57
2021/06/06 00:30:34;;;;;;;51.83;30.17;;;15.60;99.90;;;;;;5070330;28;19920;-56
2021/06/06 00:33:00;;;;;;;43.78;28.60;;;15.60;99.90;;;;;;5071503;28;20134;-55
2021/06/06 00:35:25;;;;;;;;;;;15.60;99.90;;;;;;5071265;28;20618;-55
2021/06/06 00:37:51;;;;;;;47.13;28.58;;;15.50;99.90;;;;;;5054483;28;19924;-54
2021/06/06 00:40:19;;;;;;;;;;;15.50;99.90;;;;;;5050664;28;20445;-52
2021/06/06 00:42:45;;;;;;;47.08;28.80;;;15.40;99.90;;;;;;5054675;28;20299;-51
2021/06/06 00:45:13;;;;;;;;;;;15.40;99.90;;;;;;5070706;28;20036;-54
2021/06/06 00:47:39;;;;;;;48.90;28.80;;;15.40;99.90;;;;;;5070598;28;19971;-50
2021/06/06 00:50:08;;;;;;;;;;;15.50;99.90;;;;;;5071492;28;20319;-56
2021/06/06 00:52:34;;;;;;;50.33;30.52;;;15.50;99.90;;;;;;5070551;28;19922;-53
2021/06/06 00:55:02;;;;;;;45.78;28.80;;;15.40;99.90;;;;;;5070722;28;20043;-56
2021/06/06 00:57:31;;;;;;;38.33;25.25;;;15.40;99.90;;;;;;5069809;28;20070;-57
2021/06/06 01:00:21;;;;;;;42.60;27.45;;;15.30;99.90;;;;;;5070594;28;20071;-57
2021/06/06 01:02:47;;;;;;;43.20;26.13;;;15.30;99.90;;;;;;5069274;28;20044;-55
2021/06/06 01:05:22;;;;;;;41.25;26.15;;;15.20;99.90;;;;;;5050107;28;20080;-53
2021/06/06 01:07:48;;;;;;;48.80;26.92;;;15.20;99.90;;;;;;5050502;28;20041;-53
2021/06/06 01:10:14;;;;;;;;;;;15.20;99.90;;;;;;5050659;28;20055;-53
2021/06/06 01:12:48;;;;;;;39.47;24.15;;;15.20;99.90;;;;;;5053089;28;19916;-58
2021/06/06 01:15:26;;;;;;;41.80;25.45;;;15.20;99.90;;;;;;5070506;28;20120;-58
2021/06/06 01:18:14;;;;;;;45.22;25.13;;;15.20;99.90;;;;;;5070488;28;20048;-56
2021/06/06 01:20:52;;;;;;;49.10;26.25;;;15.20;99.90;;;;;;5069735;28;20033;-57
2021/06/06 01:23:54;;;;;;;42.22;25.70;;;15.20;99.90;;;;;;5069924;28;20109;-57
2021/06/06 01:26:28;;;;;;;54.42;28.27;;;15.20;99.90;;;;;;5046081;28;20109;-54
2021/06/06 01:29:37;;;;;;;47.10;27.38;;;15.20;99.90;;;;;;5069058;28;20102;-58
2021/06/06 01:32:38;;;;;;;44.17;25.20;;;15.20;99.90;;;;;;5069236;28;20040;-58
2021/06/06 01:35:14;;;;;;;44.97;26.80;;;15.10;99.90;;;;;;5060006;28;20044;-53
2021/06/06 01:37:52;;;;;;;47.13;27.23;;;15.10;99.90;;;;;;5069642;28;20079;-58
2021/06/06 01:40:26;;;;;;;46.92;26.08;;;15.10;99.90;;;;;;5069958;28;20048;-57
2021/06/06 01:42:56;;;;;;;51.40;29.35;;;15.10;99.90;;;;;;5068909;28;20036;-56
2021/06/06 01:45:26;;;;;;;46.25;26.92;;;15.10;99.90;;;;;;5068977;28;20048;-56
2021/06/06 01:47:56;;;;;;;53.53;28.95;;;15.20;99.90;;;;;;5070244;28;20496;-57
2021/06/06 01:50:31;;;;;;;52.13;30.45;;;15.20;99.90;;;;;;5069446;28;20044;-58
2021/06/06 01:52:58;;;;;;;53.55;31.10;;;15.20;99.90;;;;;;5069940;28;20058;-54
2021/06/06 01:55:28;;;;;;;44.83;27.17;;;15.20;99.90;;;;;;5064211;28;20056;-53
2021/06/06 01:57:58;;;;;;;52.97;30.58;;;15.20;99.90;;;;;;5065527;28;20068;-58
2021/06/06 02:00:54;;;;;;;53.03;29.83;;;15.10;99.90;;;;;;5068751;28;20044;-53
2021/06/06 02:03:20;;;;;;;52.97;29.92;;;15.10;99.90;;;;;;5057341;28;20080;-56
2021/06/06 02:05:48;;;;;;;48.33;27.80;;;15.00;99.90;;;;;;5069141;28;20051;-55
2021/06/06 02:08:17;;;;;;;50.45;29.73;;;15.00;99.90;;;;;;5070173;28;20040;-56
2021/06/06 02:10:53;;;;;;;47.95;27.55;;;15.00;99.90;;;;;;5069015;28;20115;-52
2021/06/06 02:13:22;;;;;;;;;;;15.00;99.90;;;;;;5069230;28;20037;-54
2021/06/06 02:15:52;;;;;;;50.35;25.50;;;14.90;99.90;;;;;;5068544;28;19916;-52
2021/06/06 02:18:17;;;;;;;46.22;25.55;;;14.90;99.90;;;;;;5069112;28;20458;-50
2021/06/06 02:20:44;;;;;;;;;;;14.90;99.90;;;;;;5069190;28;20481;-52
2021/06/06 02:23:14;;;;;;;47.53;24.65;;;14.90;99.90;;;;;;5068855;28;19992;-56
2021/06/06 02:25:40;;;;;;;43.20;23.60;;;14.90;99.90;;;;;;5069012;28;20044;-56
2021/06/06 02:28:12;;;;;;;;;;;14.90;99.90;;;;;;5069120;28;20041;-58
2021/06/06 02:30:55;;;;;;;46.50;22.80;;;15.00;99.90;;;;;;5067683;28;20451;-53
2021/06/06 02:33:37;;;;;;;34.53;20.40;;;15.00;99.90;;;;;;5069155;28;20079;-55
2021/06/06 02:36:07;;;;;;;30.00;17.88;;;15.00;99.90;;;;;;5050262;28;20072;-53
2021/06/06 02:38:53;;;;;;;31.90;16.27;;;15.10;99.90;;;;;;5069077;28;20488;-57
2021/06/06 02:41:28;;;;;;;29.15;16.17;;;15.00;99.90;;;;;;5068538;28;20041;-57
2021/06/06 02:44:13;;;;;;;21.88;13.77;;;15.00;99.90;;;;;;5068223;28;20045;-56
2021/06/06 02:46:41;;;;;;;20.75;12.90;;;15.00;99.90;;;;;;5068407;28;20040;-57
2021/06/06 02:49:12;;;;;;;20.67;12.68;;;15.00;99.90;;;;;;5068593;28;20047;-56
2021/06/06 02:52:38;;;;;;;21.20;13.10;;;15.10;99.90;;;;;;5068239;28;20530;-56
2021/06/06 02:55:11;;;;;;;15.65;10.15;;;15.00;99.90;;;;;;5005458;28;20539;-57
2021/06/06 02:57:39;;;;;;;17.98;9.52;;;14.90;99.90;;;;;;5063477;28;20102;-50
2021/06/06 03:00:30;;;;;;;15.65;8.93;;;15.00;99.90;;;;;;5067934;28;20345;-54
2021/06/06 03:03:01;;;;;;;13.75;7.95;;;15.00;99.90;;;;;;5068556;28;20040;-57
2021/06/06 03:05:29;;;;;;;13.63;8.18;;;14.90;99.90;;;;;;5067788;28;20048;-57
2021/06/06 03:07:58;;;;;;;12.43;7.72;;;15.00;99.90;;;;;;5068103;28;20049;-55
2021/06/06 03:10:27;;;;;;;15.25;8.80;;;15.00;99.90;;;;;;5050057;28;20102;-53
2021/06/06 03:12:58;;;;;;;10.73;7.15;;;15.00;99.90;;;;;;5068398;28;20086;-57
2021/06/06 03:15:31;;;;;;;13.25;7.53;;;14.90;99.90;;;;;;5066927;28;20052;-54
2021/06/06 03:17:58;;;;;;;14.20;8.32;;;14.80;99.90;;;;;;5068240;28;20111;-54
2021/06/06 03:20:38;;;;;;;10.45;7.13;;;14.90;99.90;;;;;;5068264;28;20044;-56
2021/06/06 03:23:06;;;;;;;12.70;7.43;;;14.80;99.90;;;;;;5068714;28;20072;-58
2021/06/06 03:25:44;;;;;;;11.98;7.30;;;14.70;99.90;;;;;;5068308;28;20063;-54
2021/06/06 03:28:13;;;;;;;12.13;7.43;;;14.80;99.90;;;;;;5068592;28;20033;-57
2021/06/06 03:30:46;;;;;;;10.82;7.03;;;14.80;99.90;;;;;;5067326;28;20043;-57
2021/06/06 03:33:19;;;;;;;13.93;8.20;;;14.80;99.90;;;;;;5068096;28;20036;-55
2021/06/06 03:35:45;;;;;;;14.27;8.73;;;14.80;99.90;;;;;;5068627;28;20044;-56
2021/06/06 03:38:12;;;;;;;11.48;8.10;;;14.70;99.90;;;;;;5068172;28;20264;-57
2021/06/06 03:40:42;;;;;;;15.50;8.48;;;14.60;99.90;;;;;;5067716;28;20041;-54
2021/06/06 03:43:10;;;;;;;19.05;7.28;;;14.60;99.90;;;;;;5070948;28;20043;-56
2021/06/06 03:45:36;;;;;;;14.95;8.57;;;14.70;99.90;;;;;;5051485;28;20509;-58
2021/06/06 03:48:02;;;;;;;;;;;14.60;99.90;;;;;;5048514;28;20051;-56
2021/06/06 03:50:30;;;;;;;12.48;6.97;;;14.40;99.90;;;;;;5047384;28;19967;-58
2021/06/06 03:52:56;;;;;;;11.55;6.90;;;14.50;99.90;;;;;;5049945;28;20045;-56
2021/06/06 03:55:22;;;;;;;;;;;14.50;99.90;;;;;;5051530;28;20103;-52
2021/06/06 03:57:48;;;;;;;12.20;7.05;;;14.50;99.90;;;;;;5051487;28;20360;-56
2021/06/06 04:00:23;;;;;;;10.32;6.45;;;14.50;99.90;;;;;;5051182;28;20072;-54
2021/06/06 04:02:49;;;;;;;13.57;7.22;;;14.50;99.90;;;;;;5051788;28;20520;-58
2021/06/06 04:05:14;;;;;;;;;;;14.50;99.90;;;;;;5051556;28;20152;-56
2021/06/06 04:07:40;;;;;;;10.48;6.38;;;14.50;99.90;;;;;;5050336;28;20003;-52
2021/06/06 04:10:07;;;;;;;11.63;6.68;;;14.40;99.90;;;;;;5051250;28;20045;-59
2021/06/06 04:12:33;;;;;;;14.45;7.40;;;14.40;99.90;;;;;;5050813;28;20048;-57
2021/06/06 04:14:58;;;;;;;;;;;14.50;99.90;;;;;;5051152;28;20103;-52
2021/06/06 04:17:24;;;;;;;13.40;7.97;;;14.50;99.90;;;;;;5051045;28;19924;-50
2021/06/06 04:19:50;;;;;;;;;;;14.50;99.90;;;;;;5052310;28;20382;-55
2021/06/06 04:22:15;;;;;;;15.35;8.57;;;14.40;99.90;;;;;;5050320;28;19920;-55
2021/06/06 04:24:41;;;;;;;;;;;14.40;99.90;;;;;;5052113;28;20627;-54
2021/06/06 04:27:07;;;;;;;21.00;10.52;;;14.40;99.90;;;;;;5051456;28;20055;-57
2021/06/06 04:29:33;;;;;;;26.90;14.48;;;14.40;99.90;;;;;;5050076;28;20136;-55
2021/06/06 04:31:58;;;;;;;;;;;14.40;99.90;;;;;;5050103;28;20568;-57
2021/06/06 04:34:24;;;;;;;24.95;12.95;;;14.30;99.90;;;;;;5051045;28;20377;-56
2021/06/06 04:36:50;;;;;;;;;;;14.20;99.90;;;;;;5043781;28;20080;-57
2021/06/06 04:39:17;;;;;;;26.63;13.65;;;14.20;99.90;;;;;;5030841;28;19920;-55
2021/06/06 04:41:43;;;;;;;18.23;11.98;;;14.30;99.90;;;;;;5030794;28;20045;-52
2021/06/06 04:44:09;;;;;;;29.85;15.43;;;14.30;99.90;;;;;;5031230;28;20098;-53
2021/06/06 04:46:34;;;;;;;;;;;14.30;99.90;;;;;;5030879;28;20146;-58
2021/06/06 04:49:00;;;;;;;24.40;12.82;;;14.30;99.90;;;;;;5031412;28;20004;-57
2021/06/06 04:51:25;;;;;;;;;;;14.30;99.90;;;;;;5046855;28;20056;-56
2021/06/06 04:53:52;;;;;;;21.55;11.88;;;14.30;99.90;;;;;;5051489;28;19920;-52
2021/06/06 04:56:20;;;;;;;22.20;12.85;;;14.30;99.90;;;;;;5050738;28;20045;-56
2021/06/06 04:58:46;;;;;;;21.42;12.98;;;14.30;99.90;;;;;;5050697;28;20072;-55
2021/06/06 05:01:12;;;;;;;;;;;14.30;99.90;;;;;;5050956;28;20064;-56
2021/06/06 05:03:37;;;;;;;19.60;11.55;;;14.30;99.90;;;;;;5051169;28;20011;-56
2021/06/06 05:06:03;;;;;;;;;;;14.30;99.90;;;;;;5050523;28;20135;-56
2021/06/06 05:08:29;;;;;;;22.27;12.20;;;14.30;99.90;;;;;;5050359;28;19921;-55
2021/06/06 05:10:54;;;;;;;;;;;14.30;99.90;;;;;;5051431;28;20128;-53
2021/06/06 05:13:21;;;;;;;18.48;9.82;;;14.20;99.90;;;;;;5050223;28;19928;-57
2021/06/06 05:15:49;;;;;;;17.95;11.13;;;14.30;99.90;;;;;;5049281;28;20094;-57
2021/06/06 05:18:15;;;;;;;16.23;9.88;;;14.20;99.90;;;;;;5050927;28;20041;-51
2021/06/06 05:20:44;;;;;;;24.02;12.27;;;14.30;99.90;;;;;;5049914;28;20041;-58
2021/06/06 05:23:10;;;;;;;18.70;11.02;;;14.30;99.90;;;;;;5050279;28;20041;-55
2021/06/06 05:25:39;;;;;;;17.45;11.20;;;14.30;99.90;;;;;;5049848;28;20520;-55
2021/06/06 05:28:06;;;;;;;18.40;11.38;;;14.30;99.90;;;;;;5050259;28;20048;-55
2021/06/06 05:30:35;;;;;;;19.05;11.55;;;14.30;99.90;;;;;;5049368;28;20066;-53
2021/06/06 05:33:01;;;;;;;21.08;13.10;;;14.30;99.90;;;;;;5050205;28;20120;-54
2021/06/06 05:35:29;;;;;;;24.10;14.30;;;14.30;99.90;;;;;;5049811;28;20041;-51
2021/06/06 05:37:55;;;;;;;23.33;14.23;;;14.30;99.90;;;;;;5050041;28;20123;-57
2021/06/06 05:40:23;;;;;;;22.08;14.52;;;14.20;99.90;;;;;;5049885;28;20485;-56
2021/06/06 05:42:48;;;;;;;26.63;15.07;;;14.20;99.90;;;;;;5049680;28;20086;-52
2021/06/06 05:45:15;;;;;;;;;;;14.20;99.90;;;;;;5049839;28;20032;-54
2021/06/06 05:47:41;;;;;;;28.48;14.00;;;14.20;99.90;;;;;;5050090;28;20010;-58
2021/06/06 05:50:09;;;;;;;23.60;13.82;;;14.10;99.90;;;;;;5049720;28;20448;-56
2021/06/06 05:52:34;;;;;;;29.15;14.90;;;14.10;99.90;;;;;;5049180;28;20481;-53
2021/06/06 05:55:00;;;;;;;;;;;14.00;99.90;;;;;;5041919;28;20033;-55
2021/06/06 05:57:27;;;;;;;21.33;13.68;;;14.00;99.90;;;;;;5049792;28;19958;-57
2021/06/06 05:59:52;;;;;;;24.52;14.18;;;14.00;99.90;;;;;;5049550;28;20098;-56
2021/06/06 06:02:18;;;;;;;;;;;13.90;99.90;;;;;;5049693;28;20037;-57
2021/06/06 06:04:43;;;;;;;20.92;12.77;;;13.90;99.90;;;;;;5049067;28;19920;-55
2021/06/06 06:07:09;;;;;;;;;;;13.90;99.90;;;;;;5049210;28;20055;-49
2021/06/06 06:09:34;;;;;;;25.02;12.35;;;13.90;99.90;;;;;;5049622;28;19979;-55
2021/06/06 06:12:00;;;;;;;;;;;13.90;99.90;;;;;;5049925;28;20056;-53
2021/06/06 06:14:26;;;;;;;17.35;10.52;;;14.00;99.90;;;;;;5048627;28;19920;-53
2021/06/06 06:16:51;;;;;;;;;;;14.00;99.90;;;;;;5049277;28;20053;-49
2021/06/06 06:19:17;;;;;;;17.10;10.57;;;14.00;99.90;;;;;;5049332;28;19994;-55
2021/06/06 06:21:43;;;;;;;;;;;14.00;99.90;;;;;;5049015;28;20045;-52
2021/06/06 06:24:10;;;;;;;13.75;9.77;;;14.10;99.90;;;;;;5049281;28;19917;-51
2021/06/06 06:26:36;;;;;;;14.77;9.55;;;14.10;99.90;;;;;;5049529;28;20493;-56
2021/06/06 06:29:02;;;;;;;;;;;14.20;99.90;;;;;;5049398;28;20033;-53
2021/06/06 06:31:28;;;;;;;17.75;11.98;;;14.10;99.90;;;;;;5048332;28;19916;-53
2021/06/06 06:33:54;;;;;;;;;;;14.20;99.90;;;;;;5050076;28;20047;-54
2021/06/06 06:36:20;;;;;;;16.50;10.80;;;14.20;99.90;;;;;;5048984;28;19920;-51
2021/06/06 06:38:50;;;;;;;18.50;12.13;;;14.00;99.90;;;;;;5048852;28;20590;-57
2021/06/06 06:41:16;;;;;;;16.02;10.60;;;13.90;99.90;;;;;;5048766;28;20717;-56
2021/06/06 06:43:42;;;;;;;20.88;12.95;;;13.90;99.90;;;;;;5048724;28;20521;-56
2021/06/06 06:46:07;;;;;;;;;;;13.90;99.90;;;;;;5048754;28;20041;-58
2021/06/06 06:48:33;;;;;;;18.10;10.85;;;13.90;99.90;;;;;;5048108;28;20054;-52
2021/06/06 06:50:59;;;;;;;;;;;13.90;99.90;;;;;;5049183;28;20036;-57
2021/06/06 06:53:25;;;;;;;14.02;9.65;;;13.90;99.90;;;;;;5049296;28;19932;-61
2021/06/06 06:55:51;;;;;;;;;;;13.90;99.90;;;;;;5048130;28;20049;-60
2021/06/06 06:58:17;;;;;;;12.48;9.50;;;13.90;99.90;;;;;;5048158;28;19924;-56
2021/06/06 07:00:46;;;;;;;16.80;11.80;;;13.80;99.90;;;;;;5048057;28;20041;-58
2021/06/06 07:03:15;;;;;;;13.95;10.40;;;14.00;99.90;;;;;;5049079;28;20040;-59
2021/06/06 07:05:41;;;;;;;16.73;10.68;;;14.00;99.90;;;;;;5048268;28;20048;-56
2021/06/06 07:08:20;;;;;;;19.50;11.95;;;14.00;99.90;;;;;;5049134;28;20037;-58
2021/06/06 07:10:46;;;;;;;17.45;11.52;;;13.90;99.90;;;;;;5049506;28;20374;-60
2021/06/06 07:13:12;;;;;;;;;;;13.90;99.90;;;;;;5048192;28;20033;-51
2021/06/06 07:15:38;;;;;;;17.95;11.20;;;13.80;99.90;;;;;;5047936;28;19916;-59
2021/06/06 07:18:09;;;;;;;16.05;10.40;;;13.70;99.90;;;;;;5048971;28;20033;-60
2021/06/06 07:20:38;;;;;;;15.18;9.82;;;13.80;99.90;;;;;;5047961;28;20045;-61
2021/06/06 07:23:06;;;;;;;14.52;9.93;;;13.90;99.90;;;;;;5048711;28;20040;-61
2021/06/06 07:25:33;;;;;;;15.63;10.05;;;14.00;99.90;;;;;;5047997;28;20547;-56
2021/06/06 07:27:59;;;;;;;21.13;12.38;;;14.00;99.90;;;;;;5049680;28;20047;-61
2021/06/06 07:30:37;;;;;;;20.52;10.65;;;14.00;99.90;;;;;;5051345;28;20627;-60
2021/06/06 07:33:05;;;;;;;14.15;10.52;;;14.00;99.90;;;;;;5052736;28;20083;-59
2021/06/06 07:35:32;;;;;;;16.65;11.32;;;14.00;99.90;;;;;;5052361;28;20049;-56
2021/06/06 07:37:58;;;;;;;16.90;11.25;;;14.00;99.90;;;;;;5053313;28;20045;-62
2021/06/06 07:40:25;;;;;;;;;;;14.00;99.90;;;;;;5053268;28;20045;-60
2021/06/06 07:42:51;;;;;;;16.42;10.90;;;14.10;99.90;;;;;;5050948;28;19999;-56
2021/06/06 07:45:16;;;;;;;;;;;14.10;99.90;;;;;;5052112;28;20572;-59
2021/06/06 07:47:42;;;;;;;13.88;9.70;;;14.20;99.90;;;;;;5052356;28;20015;-59
2021/06/06 07:50:10;;;;;;;;;;;14.20;99.90;;;;;;5049159;22;20124;-61
2021/06/06 07:52:36;;;;;;;16.90;10.70;;;14.30;99.90;;;;;;5031905;28;19928;-60
2021/06/06 07:55:03;;;;;;;;;;;14.10;99.90;;;;;;5030713;28;20092;-56
2021/06/06 07:57:29;;;;;;;16.42;11.38;;;14.20;99.90;;;;;;5031580;28;19921;-58
2021/06/06 07:59:55;;;;;;;;;;;14.20;99.90;;;;;;5033320;28;20049;-60
2021/06/06 08:02:20;;;;;;;19.50;12.70;;;14.20;99.90;;;;;;5031387;28;19947;-57
2021/06/06 08:04:46;;;;;;;;;;;14.20;99.90;;;;;;5032987;28;20045;-55
2021/06/06 08:07:11;;;;;;;19.80;13.00;;;14.20;99.90;;;;;;5031492;28;19917;-59
2021/06/06 08:09:36;;;;;;;;;;;14.10;99.90;;;;;;5032274;28;20490;-59
2021/06/06 08:12:02;;;;;;;21.92;12.15;;;14.10;99.90;;;;;;5030252;28;19917;-58
2021/06/06 08:14:28;;;;;;;;;;;14.10;99.90;;;;;;5031895;28;20172;-55
2021/06/06 08:16:54;;;;;;;25.27;14.95;;;14.10;99.90;;;;;;5030659;28;20467;-58
2021/06/06 08:19:19;;;;;;;;;;;14.10;99.90;;;;;;5031799;28;20042;-59
2021/06/06 08:21:47;;;;;;;23.48;14.48;;;14.00;99.90;;;;;;5030591;28;19917;-53
2021/06/06 08:24:13;;;;;;;23.05;14.18;;;14.00;99.90;;;;;;5030666;28;20041;-58
2021/06/06 08:26:39;;;;;;;21.77;13.25;;;14.00;99.90;;;;;;5030812;28;20045;-60
2021/06/06 08:29:05;;;;;;;;;;;14.10;99.90;;;;;;5030434;28;20048;-60
2021/06/06 08:31:34;;;;;;;15.85;10.88;;;14.10;99.90;;;;;;5027743;28;20364;-60
2021/06/06 08:34:00;;;;;;;20.50;12.40;;;14.10;99.90;;;;;;5040470;28;20100;-56
2021/06/06 08:36:30;;;;;;;25.20;17.33;;;14.20;99.90;;;;;;5031425;28;20612;-57
2021/06/06 08:38:57;;;;;;;18.23;12.63;;;14.20;99.90;;;;;;5037273;28;20654;-55
2021/06/06 08:41:51;;;;;;;18.67;12.82;;;14.30;99.90;;;;;;5045502;28;20117;-57
2021/06/06 08:44:30;;;;;;;21.33;13.32;;;14.40;99.90;;;;;;5026390;28;20049;-59
2021/06/06 08:46:58;;;;;;;19.13;11.98;;;14.20;99.90;;;;;;5050297;28;20523;-59
2021/06/06 08:49:26;;;;;;;20.23;12.63;;;14.20;99.90;;;;;;5051253;28;20147;-58
2021/06/06 08:52:14;;;;;;;22.35;13.52;;;14.20;99.90;;;;;;5051096;28;20056;-57
2021/06/06 08:54:54;;;;;;;21.38;12.00;;;14.10;99.90;;;;;;5002546;28;20068;-57
2021/06/06 08:57:25;;;;;;;25.20;13.93;;;14.10;99.90;;;;;;5050583;28;20041;-54
2021/06/06 08:59:56;;;;;;;19.52;11.68;;;14.10;99.90;;;;;;5050043;28;20049;-53
2021/06/06 09:02:34;;;;;;;19.80;12.60;;;14.20;99.90;;;;;;5047471;28;20059;-57
2021/06/06 09:05:01;;;;;;;15.73;10.30;;;14.30;99.90;;;;;;5042630;28;20052;-58
2021/06/06 09:07:35;;;;;;;20.50;12.45;;;14.30;99.90;;;;;;5050933;28;20041;-59
2021/06/06 09:10:08;;;;;;;19.90;12.48;;;14.30;99.90;;;;;;5050874;28;20045;-58
2021/06/06 09:12:34;;;;;;;20.27;11.90;;;14.30;99.90;;;;;;5061006;22;20117;-55
2021/06/06 09:14:59;;;;;;;;;;;14.30;99.90;;;;;;5065817;28;20576;-56
2021/06/06 09:17:49;;;;;;;21.95;15.13;;;14.20;99.90;;;;;;5050187;28;19920;-53
2021/06/06 09:20:38;;;;;;;18.33;11.82;;;14.30;99.90;;;;;;5050300;28;20044;-56
2021/06/06 09:23:09;;;;;;;19.75;10.95;;;14.40;99.90;;;;;;5051040;28;20045;-55
2021/06/06 09:25:39;;;;;;;20.40;12.35;;;14.30;99.90;;;;;;5049959;28;20427;-58
2021/06/06 09:28:18;;;;;;;19.83;11.27;;;14.20;99.90;;;;;;5050982;28;20036;-55
2021/06/06 09:30:44;;;;;;;22.60;12.85;;;14.20;99.90;;;;;;5033836;28;20059;-59
2021/06/06 09:33:31;;;;;;;;;;;14.20;99.90;;;;;;5049970;28;20041;-57
2021/06/06 09:36:00;;;;;;;18.88;10.98;;;14.30;99.90;;;;;;5051086;28;19931;-59
2021/06/06 09:38:36;;;;;;;20.27;13.63;;;14.40;99.90;;;;;;5049873;28;20049;-59
2021/06/06 09:41:19;;;;;;;17.02;12.32;;;14.60;99.90;;;;;;5050283;28;20036;-58
2021/06/06 09:44:01;;;;;;;15.70;10.05;;;14.80;99.90;;;;;;5049646;28;20060;-59
2021/06/06 09:46:34;;;;;;;18.80;11.20;;;14.90;99.90;;;;;;5057768;22;20732;-56
2021/06/06 09:49:15;;;;;;;17.75;10.60;;;15.00;99.90;;;;;;5069969;23;20059;-73
2021/06/06 09:51:41;;;;;;;17.05;11.32;;;15.00;99.90;;;;;;5039826;28;20410;-74
2021/06/06 09:54:12;;;;;;;;;;;15.00;99.90;;;;;;5034817;28;20041;-72
2021/06/06 09:56:38;;;;;;;16.77;10.20;;;14.90;99.90;;;;;;5031148;28;19924;-73
2021/06/06 09:59:26;;;;;;;18.67;10.65;;;14.80;99.90;;;;;;5026307;28;20073;-75
2021/06/06 10:02:03;;;;;;;15.95;10.18;;;14.90;99.90;;;;;;5033383;28;20041;-75
2021/06/06 10:04:35;;;;;;;15.90;10.02;;;15.00;99.90;;;;;;5052572;28;20040;-74
2021/06/06 10:07:28;;;;;;;20.75;12.60;;;15.10;99.90;;;;;;5034497;28;20041;-74
2021/06/06 10:09:56;;;;;;;12.88;9.02;;;15.10;99.90;;;;;;5031745;28;20110;-74
2021/06/06 10:12:27;;;;;;;13.82;8.63;;;15.10;99.90;;;;;;5052101;28;20056;-75
2021/06/06 10:15:00;;;;;;;15.98;9.10;;;15.10;99.90;;;;;;5052038;28;20492;-75
2021/06/06 10:17:52;;;;;;;14.70;8.95;;;15.20;99.90;;;;;;5033396;28;20048;-74
2021/06/06 10:20:36;;;;;;;12.85;8.32;;;15.10;99.90;;;;;;5034281;28;20132;-75
2021/06/06 10:23:07;;;;;;;12.38;8.30;;;15.30;99.90;;;;;;5033677;28;20040;-74
2021/06/06 10:25:59;;;;;;;14.32;8.85;;;15.30;99.90;;;;;;5051710;28;20116;-75
2021/06/06 10:28:40;;;;;;;12.35;7.72;;;15.30;99.90;;;;;;5036703;28;20673;-74
2021/06/06 10:31:26;;;;;;;11.25;8.18;;;15.40;99.90;;;;;;5028888;28;20044;-73
2021/06/06 10:34:20;;;;;;;12.18;8.23;;;15.30;99.90;;;;;;5029030;28;20040;-74
2021/06/06 10:36:46;;;;;;;14.77;9.13;;;15.30;99.90;;;;;;5051353;28;20079;-75
2021/06/06 10:39:16;;;;;;;;;;;15.30;99.90;;;;;;5034308;28;20037;-74
2021/06/06 10:42:01;;;;;;;15.52;9.60;;;15.20;99.90;;;;;;5034060;28;19920;-75
2021/06/06 10:44:43;;;;;;;13.23;8.93;;;15.20;99.90;;;;;;5033708;28;20041;-76
2021/06/06 10:47:38;;;;;;;15.38;8.60;;;15.30;99.90;;;;;;5051823;28;20052;-74
2021/06/06 10:50:15;;;;;;;12.95;8.85;;;15.40;99.90;;;;;;5034438;28;20049;-74
2021/06/06 10:52:41;;;;;;;14.35;9.18;;;15.30;99.90;;;;;;5036229;28;20086;-73
2021/06/06 10:55:25;;;;;;;16.08;9.60;;;15.20;99.90;;;;;;5052427;28;20048;-74
2021/06/06 10:57:51;;;;;;;13.27;8.80;;;15.10;99.90;;;;;;5033715;28;20715;-74
2021/06/06 11:00:20;;;;;;;13.40;9.25;;;15.20;99.90;;;;;;5043034;28;20398;-74
2021/06/06 11:02:49;;;;;;;13.43;9.20;;;15.30;99.90;;;;;;5033376;28;20049;-74
2021/06/06 11:05:59;;;;;;;12.23;8.32;;;15.30;99.90;;;;;;5033462;28;20041;-72
2021/06/06 11:08:28;;;;;;;15.40;10.48;;;15.40;99.90;;;;;;5029680;28;20053;-76
2021/06/06 11:11:23;;;;;;;13.52;8.35;;;15.10;99.90;;;;;;5032897;28;20082;-75
2021/06/06 11:13:52;;;;;;;14.63;9.40;;;15.20;99.90;;;;;;5050621;28;20090;-75
2021/06/06 11:16:17;;;;;;;13.75;8.85;;;15.20;99.90;;;;;;5032607;28;20041;-76
2021/06/06 11:18:44;;;;;;;;;;;15.30;99.90;;;;;;5034095;28;20097;-75
2021/06/06 11:21:11;;;;;;;11.57;7.45;;;15.30;99.90;;;;;;5032784;28;19960;-76
2021/06/06 11:23:45;;;;;;;12.02;7.78;;;15.40;99.90;;;;;;5032706;28;20049;-75
2021/06/06 11:26:39;;;;;;;11.30;8.73;;;15.40;99.90;;;;;;5032897;28;20371;-75
2021/06/06 11:29:21;;;;;;;14.40;7.88;;;15.30;99.90;;;;;;5008558;28;20085;-76
2021/06/06 11:32:18;;;;;;;14.35;9.45;;;15.30;99.90;;;;;;5031853;28;20033;-75
2021/06/06 11:35:04;;;;;;;17.67;10.63;;;15.20;99.90;;;;;;5012520;28;20041;-75
2021/06/06 11:37:30;;;;;;;17.65;10.25;;;15.20;99.90;;;;;;5013584;28;20045;-75
2021/06/06 11:40:06;;;;;;;15.30;10.15;;;15.20;99.90;;;;;;5013492;28;20136;-76
2021/06/06 11:42:37;;;;;;;14.93;9.87;;;15.30;99.90;;;;;;5029619;28;20041;-75
2021/06/06 11:45:18;;;;;;;15.85;10.80;;;15.20;99.90;;;;;;5029391;28;20430;-75
2021/06/06 11:47:50;;;;;;;15.75;10.63;;;15.10;99.90;;;;;;5031306;28;20053;-75
2021/06/06 11:50:30;;;;;;;18.42;12.15;;;15.10;99.90;;;;;;5030685;28;20059;-73
2021/06/06 11:53:10;;;;;;;15.02;10.10;;;15.30;99.90;;;;;;5029914;28;20044;-73
2021/06/06 11:55:43;;;;;;;14.27;9.35;;;15.30;99.90;;;;;;5033197;28;20122;-73
2021/06/06 11:58:33;;;;;;;19.80;12.90;;;15.30;99.90;;;;;;5031580;28;20044;-73
2021/06/06 12:01:15;;;;;;;21.45;13.68;;;15.20;99.90;;;;;;5033003;28;20048;-73
2021/06/06 12:03:45;;;;;;;19.73;13.68;;;15.00;99.90;;;;;;5051172;28;20474;-72
2021/06/06 12:06:20;;;;;;;16.38;11.60;;;15.00;99.90;;;;;;5033599;28;20041;-74
2021/06/06 12:08:58;;;;;;;17.00;11.70;;;15.00;99.90;;;;;;5052091;28;20421;-73
2021/06/06 12:11:27;;;;;;;15.43;10.57;;;14.90;99.90;;;;;;5033058;28;20144;-74
2021/06/06 12:14:14;;;;;;;20.33;12.82;;;15.00;99.90;;;;;;5034106;28;20033;-75
2021/06/06 12:16:51;;;;;;;14.23;9.63;;;15.00;99.90;;;;;;5054167;28;20052;-74
2021/06/06 12:19:22;;;;;;;17.38;11.48;;;15.00;99.90;;;;;;5036424;28;20485;-75
2021/06/06 12:21:49;;;;;;;14.38;10.77;;;15.10;99.90;;;;;;5035940;28;20040;-74
2021/06/06 12:24:25;;;;;;;13.90;9.90;;;15.00;99.90;;;;;;5036625;28;20045;-75
2021/06/06 12:27:00;;;;;;;15.93;10.80;;;15.00;99.90;;;;;;5036328;28;20094;-75
2021/06/06 12:29:51;;;;;;;15.52;9.15;;;15.00;99.90;;;;;;5041558;28;20060;-74
2021/06/06 12:32:29;;;;;;;13.48;8.75;;;15.10;99.90;;;;;;5027063;28;20056;-74
2021/06/06 12:35:00;;;;;;;13.30;9.70;;;15.10;99.90;;;;;;5035535;28;20124;-74
2021/06/06 12:37:30;;;;;;;14.07;9.38;;;15.20;99.90;;;;;;5035732;28;20513;-75
2021/06/06 12:40:00;;;;;;;14.93;9.93;;;15.30;99.90;;;;;;5036243;28;20048;-75
2021/06/06 12:42:27;;;;;;;14.55;10.07;;;15.30;99.90;;;;;;5035856;28;20048;-74
2021/06/06 12:44:58;;;;;;;21.45;13.48;;;15.30;99.90;;;;;;5035159;28;20052;-75
2021/06/06 12:47:31;;;;;;;20.85;12.80;;;15.30;99.90;;;;;;5035216;28;20071;-75
2021/06/06 12:50:02;;;;;;;18.80;12.82;;;15.10;99.90;;;;;;5053853;28;20060;-74
2021/06/06 12:52:47;;;;;;;17.63;11.88;;;15.00;99.90;;;;;;5035643;28;20044;-75
2021/06/06 12:55:38;;;;;;;19.50;10.65;;;15.00;99.90;;;;;;5035313;28;20052;-75
2021/06/06 12:58:10;;;;;;;17.25;11.23;;;14.90;99.90;;;;;;5025567;28;20482;-74
2021/06/06 13:00:43;;;;;;;17.00;11.40;;;14.90;99.90;;;;;;5026856;28;20049;-75
2021/06/06 13:03:15;;;;;;;18.77;11.00;;;14.90;99.90;;;;;;5033994;28;20398;-75
2021/06/06 13:05:51;;;;;;;19.70;12.50;;;14.90;99.90;;;;;;5053688;28;20051;-75
2021/06/06 13:08:27;;;;;;;19.77;12.10;;;14.80;99.90;;;;;;5053173;28;20048;-75